createdAt,value
2022-11-10T00:00:06.022Z,1.40
2022-11-10T00:02:51.193Z,1.20
2022-11-10T00:05:37.936Z,1.30
2022-11-10T00:08:23.210Z,1.52
2022-11-10T00:11:08.706Z,1.52
2022-11-10T00:14:12.666Z,1.20
2022-11-10T00:17:00.819Z,1.60
2022-11-10T00:19:46.002Z,1.57
2022-11-10T00:22:34.210Z,1.27
2022-11-10T00:25:19.883Z,1.38
2022-11-10T00:28:05.261Z,1.40
2022-11-10T00:30:50.963Z,1.60
2022-11-10T00:33:42.681Z,1.70
2022-11-10T00:36:28.018Z,1.70
2022-11-10T00:39:13.472Z,1.45
2022-11-10T00:41:59.098Z,1.48
2022-11-10T00:44:44.492Z,1.70
2022-11-10T00:47:30.032Z,1.55
2022-11-10T00:50:15.535Z,1.75
2022-11-10T00:53:01.154Z,1.50
2022-11-10T00:55:46.781Z,1.48
2022-11-10T00:58:32.248Z,1.60
2022-11-10T01:01:20.346Z,1.88
2022-11-10T01:04:06.387Z,1.52
2022-11-10T01:06:52.769Z,1.42
2022-11-10T01:09:38.527Z,1.40
2022-11-10T01:12:23.883Z,1.55
2022-11-10T01:15:09.762Z,1.65
2022-11-10T01:17:56.408Z,1.55
2022-11-10T01:20:41.580Z,1.95
2022-11-10T01:23:28.434Z,1.70
2022-11-10T01:26:14.693Z,2.10
2022-11-10T01:28:59.850Z,1.85
2022-11-10T01:31:45.893Z,2.00
2022-11-10T01:34:31.299Z,3.67
2022-11-10T01:37:16.628Z,6.27
2022-11-10T01:40:03.569Z,2.00
2022-11-10T01:42:50.372Z,1.50
2022-11-10T01:45:43.847Z,2.50
2022-11-10T01:48:45.504Z,3.97
2022-11-10T01:51:56.463Z,999.90
2022-11-10T01:54:48.475Z,999.90
2022-11-10T01:57:34.346Z,999.90
2022-11-10T02:00:20.441Z,993.67
2022-11-10T02:03:30.329Z,987.83
2022-11-10T02:06:16.932Z,977.50
2022-11-10T02:09:02.276Z,975.08
2022-11-10T02:11:51.129Z,966.47
2022-11-10T02:14:37.386Z,965.88
2022-11-10T02:17:22.892Z,954.95
2022-11-10T02:20:11.130Z,963.17
2022-11-10T02:22:56.581Z,965.72
2022-11-10T02:25:42.639Z,970.47
2022-11-10T02:28:28.544Z,959.65
2022-11-10T02:31:13.648Z,960.88
2022-11-10T02:33:59.170Z,957.83
2022-11-10T02:36:44.694Z,975.40
2022-11-10T02:39:30.366Z,965.90
2022-11-10T02:42:16.588Z,962.88
2022-11-10T02:45:02.120Z,965.65
2022-11-10T02:47:47.533Z,961.83
2022-11-10T02:50:33.023Z,963.95
2022-11-10T02:53:18.817Z,965.00
2022-11-10T02:56:04.951Z,963.33
2022-11-10T02:58:50.361Z,962.17
2022-11-10T03:01:35.756Z,962.47
2022-11-10T03:04:21.133Z,964.50
2022-11-10T03:07:06.667Z,964.08
2022-11-10T03:09:52.102Z,964.60
2022-11-10T03:12:37.508Z,961.67
2022-11-10T03:15:23.941Z,999.05
2022-11-10T03:18:10.147Z,975.70
2022-11-10T03:20:55.509Z,976.42
2022-11-10T03:23:41.022Z,974.42
2022-11-10T03:26:26.404Z,967.45
2022-11-10T03:29:11.855Z,967.60
2022-11-10T03:31:57.264Z,977.33
2022-11-10T03:34:42.799Z,972.67
2022-11-10T03:37:28.327Z,956.20
2022-11-10T03:40:13.910Z,952.92
2022-11-10T03:42:59.468Z,948.33
2022-11-10T03:45:44.998Z,947.13
2022-11-10T03:48:30.459Z,947.17
2022-11-10T03:51:15.965Z,944.80
2022-11-10T03:54:01.267Z,945.28
2022-11-10T03:56:46.875Z,943.47
2022-11-10T03:59:32.305Z,942.50
2022-11-10T04:02:17.778Z,948.53
2022-11-10T04:05:22.274Z,942.97
2022-11-10T04:08:32.393Z,949.65
2022-11-10T04:11:37.846Z,973.97
2022-11-10T04:14:41.761Z,963.63
2022-11-10T04:17:27.158Z,973.65
2022-11-10T04:20:12.746Z,968.80
2022-11-10T04:23:16.729Z,967.73
2022-11-10T04:26:27.606Z,971.13
2022-11-10T04:29:14.435Z,971.10
2022-11-10T04:31:59.673Z,964.85
2022-11-10T04:34:45.073Z,970.47
2022-11-10T04:37:30.514Z,963.50
2022-11-10T04:40:16.083Z,968.60
2022-11-10T04:43:01.459Z,972.90
2022-11-10T04:45:46.903Z,975.00
2022-11-10T04:48:33.551Z,966.77
2022-11-10T04:51:20.718Z,967.35
2022-11-10T04:54:07.458Z,968.37
2022-11-10T04:56:52.891Z,953.72
2022-11-10T04:59:38.241Z,951.60
2022-11-10T05:02:23.776Z,952.70
2022-11-10T05:05:09.458Z,951.53
2022-11-10T05:07:55.289Z,948.15
2022-11-10T05:10:40.475Z,950.97
2022-11-10T05:13:25.795Z,946.80
2022-11-10T05:16:12.138Z,938.03
2022-11-10T05:18:58.176Z,947.97
2022-11-10T05:21:44.349Z,947.17
2022-11-10T05:24:30.742Z,946.80
2022-11-10T05:27:16.135Z,934.58
2022-11-10T05:30:02.598Z,942.65
2022-11-10T05:32:48.083Z,930.63
2022-11-10T05:35:34.081Z,939.83
2022-11-10T05:38:22.690Z,936.53
2022-11-10T05:41:08.238Z,937.47
2022-11-10T05:43:53.521Z,936.80
2022-11-10T05:46:38.885Z,946.20
2022-11-10T05:49:24.388Z,963.30
2022-11-10T05:52:09.853Z,966.83
2022-11-10T05:54:57.985Z,984.03
2022-11-10T05:57:45.175Z,948.47
2022-11-10T06:00:31.841Z,943.47
2022-11-10T06:03:19.452Z,947.67
2022-11-10T06:06:05.342Z,951.63
2022-11-10T06:08:51.910Z,951.65
2022-11-10T06:11:37.611Z,956.92
2022-11-10T06:14:22.995Z,954.05
2022-11-10T06:17:08.601Z,944.67
2022-11-10T06:19:53.698Z,947.20
2022-11-10T06:22:39.668Z,947.25
2022-11-10T06:25:25.658Z,959.63
2022-11-10T06:28:11.111Z,952.23
2022-11-10T06:30:58.925Z,945.58
2022-11-10T06:33:44.203Z,945.17
2022-11-10T06:36:30.718Z,941.22
2022-11-10T06:39:17.226Z,937.38
2022-11-10T06:42:02.611Z,928.88
2022-11-10T06:44:48.211Z,937.50
2022-11-10T06:47:35.607Z,938.22
2022-11-10T06:50:20.987Z,939.78
2022-11-10T06:53:06.935Z,943.55
2022-11-10T06:55:54.109Z,958.70
2022-11-10T06:58:40.609Z,949.78
2022-11-10T07:01:26.741Z,942.30
2022-11-10T07:04:19.786Z,925.65
2022-11-10T07:07:07.605Z,925.63
2022-11-10T07:09:52.855Z,922.25
2022-11-10T07:12:38.441Z,924.67
2022-11-10T07:15:23.931Z,925.33
2022-11-10T07:18:09.588Z,925.20
2022-11-10T07:20:54.769Z,930.85
2022-11-10T07:23:42.401Z,945.72
2022-11-10T07:26:27.991Z,937.03
2022-11-10T07:29:13.438Z,932.65
2022-11-10T07:31:58.742Z,922.70
2022-11-10T07:34:44.209Z,930.47
2022-11-10T07:37:30.640Z,932.53
2022-11-10T07:40:16.283Z,952.00
2022-11-10T07:43:02.336Z,934.42
2022-11-10T07:45:49.509Z,934.78
2022-11-10T07:48:34.658Z,933.90
2022-11-10T07:51:20.225Z,936.00
2022-11-10T07:54:05.650Z,939.80
2022-11-10T07:56:51.019Z,938.05
2022-11-10T07:59:36.399Z,941.70
2022-11-10T08:02:21.883Z,939.40
2022-11-10T08:05:07.383Z,939.03
2022-11-10T08:07:53.504Z,926.58
2022-11-10T08:10:40.361Z,918.03
2022-11-10T08:13:26.243Z,928.95
2022-11-10T08:16:12.023Z,932.17
2022-11-10T08:18:57.706Z,913.03
2022-11-10T08:21:43.329Z,923.65
2022-11-10T08:24:28.787Z,930.22
2022-11-10T08:27:14.156Z,922.70
2022-11-10T08:29:59.728Z,929.65
2022-11-10T08:32:45.114Z,948.30
2022-11-10T08:35:34.587Z,931.60
2022-11-10T08:38:24.300Z,926.42
2022-11-10T08:41:09.857Z,926.65
2022-11-10T08:43:55.315Z,936.70
2022-11-10T08:46:44.157Z,941.28
2022-11-10T08:49:29.816Z,947.08
2022-11-10T08:52:15.250Z,943.15
2022-11-10T08:55:00.654Z,942.17
2022-11-10T08:57:48.364Z,954.72
2022-11-10T09:00:33.939Z,953.78
2022-11-10T09:03:24.801Z,955.72
2022-11-10T09:06:10.562Z,936.35
2022-11-10T09:08:56.130Z,932.97
2022-11-10T09:11:41.577Z,942.92
2022-11-10T09:14:27.123Z,947.40
2022-11-10T09:17:13.097Z,977.40
2022-11-10T09:19:58.515Z,955.95
2022-11-10T09:22:44.723Z,965.75
2022-11-10T09:25:29.993Z,971.63
2022-11-10T09:28:17.098Z,976.70
2022-11-10T09:31:02.508Z,973.40
2022-11-10T09:33:48.081Z,977.03
2022-11-10T09:36:33.510Z,970.95
2022-11-10T09:39:18.954Z,980.72
2022-11-10T09:42:06.469Z,932.22
2022-11-10T09:45:06.815Z,930.28
2022-11-10T09:48:15.673Z,921.55
2022-11-10T09:51:10.905Z,928.47
2022-11-10T09:53:59.211Z,923.92
2022-11-10T09:56:44.415Z,931.10
2022-11-10T09:59:34.786Z,922.30
2022-11-10T10:02:30.749Z,930.25
2022-11-10T10:05:34.708Z,926.22
2022-11-10T10:08:33.651Z,923.78
2022-11-10T10:11:37.523Z,925.88
2022-11-10T10:15:09.470Z,945.50
2022-11-10T10:18:22.644Z,933.47
2022-11-10T10:21:39.294Z,927.05
2022-11-10T10:24:27.962Z,929.25
2022-11-10T10:27:26.562Z,933.08
2022-11-10T10:30:17.297Z,935.03
2022-11-10T10:33:21.405Z,941.95
2022-11-10T10:36:14.231Z,928.80
2022-11-10T10:39:04.853Z,929.75
2022-11-10T10:41:50.084Z,928.33
2022-11-10T10:44:35.736Z,934.13
2022-11-10T10:47:36.570Z,935.17
2022-11-10T10:50:42.047Z,938.73
2022-11-10T10:53:27.709Z,937.05
2022-11-10T10:56:22.403Z,933.55
2022-11-10T10:59:20.308Z,930.07
2022-11-10T11:02:23.500Z,925.28
2022-11-10T11:05:16.295Z,934.78
2022-11-10T11:08:02.604Z,920.50
2022-11-10T11:10:48.070Z,908.92
2022-11-10T11:13:33.841Z,919.58
2022-11-10T11:16:19.093Z,915.05
2022-11-10T11:19:04.890Z,909.92
2022-11-10T11:22:13.671Z,919.63
2022-11-10T11:25:26.550Z,924.83
2022-11-10T11:28:26.175Z,925.80
2022-11-10T11:31:23.767Z,929.23
2022-11-10T11:34:17.293Z,935.28
2022-11-10T11:37:19.655Z,913.33
2022-11-10T11:40:27.898Z,916.00
2022-11-10T11:43:50.935Z,927.38
2022-11-10T11:47:13.788Z,921.10
2022-11-10T11:49:58.964Z,914.23
2022-11-10T11:53:03.222Z,922.38
2022-11-10T11:56:13.247Z,927.73
2022-11-10T11:59:03.627Z,933.63
2022-11-10T12:01:55.467Z,936.90
2022-11-10T12:05:07.055Z,930.85
2022-11-10T12:08:02.085Z,922.08
2022-11-10T12:11:16.720Z,914.13
2022-11-10T12:14:33.017Z,909.83
2022-11-10T12:17:43.923Z,909.47
2022-11-10T12:20:47.923Z,908.70
2022-11-10T12:23:54.415Z,907.72
2022-11-10T12:26:55.883Z,903.35
2022-11-10T12:30:12.156Z,899.58
2022-11-10T12:33:05.187Z,900.15
2022-11-10T12:35:53.627Z,903.05
2022-11-10T12:38:47.954Z,908.92
2022-11-10T12:41:43.377Z,909.63
2022-11-10T12:44:52.998Z,915.00
2022-11-10T12:47:46.589Z,895.25
2022-11-10T12:51:01.431Z,902.63
2022-11-10T12:53:48.492Z,913.40
2022-11-10T12:56:39.236Z,906.92
2022-11-10T12:59:26.616Z,901.25
2022-11-10T13:02:28.526Z,901.67
2022-11-10T13:05:13.890Z,904.67
2022-11-10T13:08:14.225Z,911.03
2022-11-10T13:11:11.634Z,909.10
2022-11-10T13:14:02.386Z,907.90
2022-11-10T13:16:55.598Z,913.08
2022-11-10T13:19:40.617Z,908.15
2022-11-10T13:22:40.918Z,914.20
2022-11-10T13:25:38.372Z,921.05
2022-11-10T13:28:48.913Z,920.83
2022-11-10T13:31:38.413Z,920.35
2022-11-10T13:34:32.877Z,918.08
2022-11-10T13:37:33.582Z,917.27
2022-11-10T13:40:25.158Z,915.53
2022-11-10T13:43:22.818Z,919.47
2022-11-10T13:46:08.601Z,917.72
2022-11-10T13:48:53.726Z,926.05
2022-11-10T13:51:43.663Z,912.78
2022-11-10T13:54:50.254Z,912.28
2022-11-10T13:57:37.573Z,918.53
2022-11-10T14:00:35.048Z,921.17
2022-11-10T14:03:45.510Z,928.92
2022-11-10T14:06:43.894Z,922.90
2022-11-10T14:09:42.069Z,914.08
2022-11-10T14:12:34.122Z,915.17
2022-11-10T14:15:23.607Z,912.45
2022-11-10T14:18:22.965Z,922.25
2022-11-10T14:21:11.207Z,915.28
2022-11-10T14:24:24.507Z,911.37
2022-11-10T14:27:20.941Z,907.95
2022-11-10T14:30:21.865Z,911.17
2022-11-10T14:33:11.237Z,892.47
2022-11-10T14:36:03.751Z,908.42
2022-11-10T14:38:51.316Z,897.30
2022-11-10T14:41:36.818Z,899.80
2022-11-10T14:44:25.338Z,901.08
2022-11-10T14:47:24.025Z,905.50
2022-11-10T14:50:16.046Z,905.10
2022-11-10T14:53:03.053Z,910.67
2022-11-10T14:55:54.686Z,902.78
2022-11-10T14:58:43.001Z,908.80
2022-11-10T15:01:37.126Z,908.13
2022-11-10T15:04:31.801Z,916.25
2022-11-10T15:07:18.025Z,914.95
2022-11-10T15:10:13.586Z,913.45
2022-11-10T15:13:02.055Z,909.45
2022-11-10T15:15:47.763Z,906.38
2022-11-10T15:18:32.898Z,913.27
2022-11-10T15:21:21.195Z,919.67
2022-11-10T15:24:07.161Z,921.63
2022-11-10T15:26:52.833Z,909.05
2022-11-10T15:29:38.931Z,910.30
2022-11-10T15:32:45.735Z,907.85
2022-11-10T15:35:32.000Z,909.23
2022-11-10T15:38:25.736Z,900.00
2022-11-10T15:41:16.099Z,901.57
2022-11-10T15:44:16.634Z,900.85
2022-11-10T15:47:01.985Z,902.58
2022-11-10T15:49:47.599Z,896.20
2022-11-10T15:52:33.272Z,898.17
2022-11-10T15:55:23.481Z,898.25
2022-11-10T15:58:21.087Z,895.22
2022-11-10T16:01:11.285Z,893.78
2022-11-10T16:03:57.175Z,891.00
2022-11-10T16:06:42.914Z,894.83
2022-11-10T16:09:28.381Z,900.47
2022-11-10T16:12:18.005Z,898.88
2022-11-10T16:15:03.488Z,898.53
2022-11-10T16:17:48.730Z,902.90
2022-11-10T16:20:34.220Z,904.90
2022-11-10T16:23:20.153Z,909.80
2022-11-10T16:26:07.458Z,908.67
2022-11-10T16:28:52.888Z,893.60
2022-11-10T16:31:39.123Z,896.47
2022-11-10T16:34:24.471Z,899.45
2022-11-10T16:37:12.452Z,900.67
2022-11-10T16:39:57.806Z,905.65
2022-11-10T16:42:43.887Z,888.45
2022-11-10T16:45:30.323Z,901.05
2022-11-10T16:48:18.756Z,892.70
2022-11-10T16:51:04.394Z,909.08
2022-11-10T16:53:51.753Z,918.60
2022-11-10T16:56:37.138Z,910.30
2022-11-10T16:59:22.295Z,908.35
2022-11-10T17:02:24.388Z,845.22
2022-11-10T17:05:14.331Z,952.07
2022-11-10T17:08:01.315Z,947.08
2022-11-10T17:10:46.846Z,934.42
2022-11-10T17:13:32.661Z,931.67
2022-11-10T17:16:28.342Z,928.25
2022-11-10T17:19:18.844Z,918.70
2022-11-10T17:22:04.302Z,808.27
2022-11-10T17:24:54.832Z,937.70
2022-11-10T17:27:40.231Z,949.70
2022-11-10T17:30:25.839Z,940.58
2022-11-10T17:33:12.444Z,926.72
2022-11-10T17:35:58.222Z,913.63
2022-11-10T17:38:43.835Z,919.83
2022-11-10T17:41:29.068Z,919.63
2022-11-10T17:44:16.131Z,924.88
2022-11-10T17:47:01.361Z,929.75
2022-11-10T17:49:46.932Z,919.75
2022-11-10T17:52:32.314Z,938.53
2022-11-10T17:55:19.149Z,933.63
2022-11-10T17:58:04.374Z,942.70
2022-11-10T18:00:50.122Z,938.95
2022-11-10T18:03:35.454Z,935.72
2022-11-10T18:06:21.413Z,934.45
2022-11-10T18:09:06.925Z,938.03
2022-11-10T18:11:52.399Z,931.88
2022-11-10T18:14:37.924Z,935.60
2022-11-10T18:17:23.489Z,928.45
2022-11-10T18:20:10.678Z,932.87
2022-11-10T18:22:55.905Z,929.75
2022-11-10T18:25:42.560Z,927.40
2022-11-10T18:28:28.006Z,924.55
2022-11-10T18:31:13.934Z,930.38
2022-11-10T18:33:59.254Z,928.70
2022-11-10T18:36:44.645Z,926.05
2022-11-10T18:39:30.338Z,927.80
2022-11-10T18:42:15.760Z,927.63
2022-11-10T18:45:01.161Z,932.65
2022-11-10T18:47:46.490Z,925.35
2022-11-10T18:50:32.873Z,935.97
2022-11-10T18:53:18.170Z,935.70
2022-11-10T18:56:03.571Z,939.40
2022-11-10T18:58:56.718Z,937.58
2022-11-10T19:01:42.542Z,939.90
2022-11-10T19:04:27.941Z,931.83
2022-11-10T19:07:13.549Z,924.65
2022-11-10T19:09:59.786Z,928.63
2022-11-10T19:12:44.992Z,935.75
2022-11-10T19:15:30.588Z,934.58
2022-11-10T19:18:16.225Z,927.90
2022-11-10T19:21:11.115Z,937.65
2022-11-10T19:23:59.478Z,950.17
2022-11-10T19:26:45.076Z,951.25
2022-11-10T19:29:31.187Z,931.47
2022-11-10T19:32:20.769Z,937.95
2022-11-10T19:35:09.277Z,937.83
2022-11-10T19:37:54.467Z,935.17
2022-11-10T19:40:40.689Z,937.37
2022-11-10T19:43:25.981Z,929.42
2022-11-10T19:46:23.306Z,933.70
2022-11-10T19:49:08.566Z,936.63
2022-11-10T19:51:54.067Z,936.05
2022-11-10T19:54:39.453Z,930.17
2022-11-10T19:57:25.252Z,940.20
2022-11-10T20:00:12.381Z,934.83
2022-11-10T20:02:57.831Z,929.55
2022-11-10T20:05:46.133Z,932.80
2022-11-10T20:08:31.929Z,932.63
2022-11-10T20:11:21.483Z,931.73
2022-11-10T20:14:07.053Z,934.88
2022-11-10T20:16:52.498Z,5.22
2022-11-10T20:19:41.230Z,13.48
2022-11-10T20:22:26.833Z,40.15
2022-11-10T20:25:12.594Z,1.85
2022-11-10T20:27:58.751Z,1.60
2022-11-10T20:30:44.750Z,2.00
2022-11-10T20:33:31.859Z,4.93
2022-11-10T20:36:28.869Z,13.95
2022-11-10T20:39:14.053Z,984.28
2022-11-10T20:41:59.394Z,952.67
2022-11-10T20:44:44.951Z,926.13
2022-11-10T20:47:30.328Z,947.08
2022-11-10T20:50:20.385Z,933.50
2022-11-10T20:53:08.728Z,923.63
2022-11-10T20:55:58.667Z,918.13
2022-11-10T20:58:45.022Z,919.13
2022-11-10T21:01:30.847Z,922.38
2022-11-10T21:04:16.271Z,924.43
2022-11-10T21:07:01.810Z,912.72
2022-11-10T21:09:47.222Z,901.60
2022-11-10T21:12:50.776Z,913.58
2022-11-10T21:15:39.948Z,913.80
2022-11-10T21:18:28.751Z,912.90
2022-11-10T21:21:23.104Z,913.05
2022-11-10T21:24:09.388Z,914.75
2022-11-10T21:26:58.230Z,912.33
2022-11-10T21:29:44.024Z,909.28
2022-11-10T21:32:29.278Z,909.40
2022-11-10T21:35:15.472Z,905.67
2022-11-10T21:38:00.710Z,904.08
2022-11-10T21:40:46.328Z,903.78
2022-11-10T21:43:31.808Z,904.13
2022-11-10T21:46:18.042Z,904.13
2022-11-10T21:49:07.569Z,900.92
2022-11-10T21:51:53.609Z,903.50
2022-11-10T21:54:38.982Z,902.00
2022-11-10T21:57:24.500Z,893.47
2022-11-10T22:00:11.764Z,895.75
2022-11-10T22:02:59.161Z,897.35
2022-11-10T22:05:44.985Z,905.78
2022-11-10T22:08:30.339Z,904.83
2022-11-10T22:11:37.182Z,908.25
2022-11-10T22:14:40.910Z,908.13
2022-11-10T22:17:44.714Z,908.58
2022-11-10T22:20:30.161Z,922.72
2022-11-10T22:23:15.690Z,910.25
2022-11-10T22:26:00.917Z,903.75
2022-11-10T22:28:46.702Z,905.80
2022-11-10T22:31:33.725Z,919.00
2022-11-10T22:34:20.097Z,910.10
2022-11-10T22:37:05.278Z,905.85
2022-11-10T22:40:09.195Z,905.80
2022-11-10T22:43:13.064Z,906.33
2022-11-10T22:45:58.701Z,918.30
2022-11-10T22:48:44.207Z,906.05
2022-11-10T22:51:30.869Z,910.05
2022-11-10T22:54:18.988Z,916.60
2022-11-10T22:57:05.181Z,914.55
2022-11-10T22:59:50.477Z,911.10
2022-11-10T23:02:36.348Z,913.87
2022-11-10T23:05:21.803Z,914.88
2022-11-10T23:08:07.205Z,913.33
2022-11-10T23:11:19.877Z,910.03
2022-11-10T23:14:05.081Z,916.50
2022-11-10T23:16:50.514Z,911.88
2022-11-10T23:19:35.807Z,912.17
2022-11-10T23:22:21.507Z,903.93
2022-11-10T23:25:07.406Z,905.65
2022-11-10T23:27:52.746Z,902.42
2022-11-10T23:30:38.382Z,905.22
2022-11-10T23:33:25.741Z,907.42
2022-11-10T23:36:16.658Z,905.25
2022-11-10T23:39:01.986Z,901.67
2022-11-10T23:41:47.385Z,909.58
2022-11-10T23:44:32.898Z,906.85
2022-11-10T23:47:18.842Z,905.97
2022-11-10T23:50:04.586Z,905.95
2022-11-10T23:52:50.053Z,907.40
2022-11-10T23:55:36.381Z,908.53
2022-11-10T23:58:21.459Z,906.47
